sensor_id;sensor_type;location;lat;lon;timestamp;pressure;altitude;pressure_sealevel;temperature;humidity
49461;BME280;35355;49.198;-0.368;2023-11-18T00:01:46;101655.84;;;11.90;74.79
49461;BME280;35355;49.198;-0.368;2023-11-18T00:04:11;101639.09;;;11.87;74.72
49461;BME280;35355;49.198;-0.368;2023-11-18T00:06:45;101641.34;;;11.90;74.67
49461;BME280;35355;49.198;-0.368;2023-11-18T00:09:11;101656.91;;;11.89;74.75
49461;BME280;35355;49.198;-0.368;2023-11-18T00:11:40;101642.44;;;11.89;74.99
49461;BME280;35355;49.198;-0.368;2023-11-18T00:14:06;101645.72;;;11.91;74.95
49461;BME280;35355;49.198;-0.368;2023-11-18T00:16:32;101647.41;;;11.92;75.08
49461;BME280;35355;49.198;-0.368;2023-11-18T00:18:57;101642.53;;;11.94;75.38
49461;BME280;35355;49.198;-0.368;2023-11-18T00:21:24;101629.69;;;11.95;75.40
49461;BME280;35355;49.198;-0.368;2023-11-18T00:23:49;101623.38;;;11.94;75.08
49461;BME280;35355;49.198;-0.368;2023-11-18T00:26:15;101617.09;;;11.93;75.19
49461;BME280;35355;49.198;-0.368;2023-11-18T00:28:40;101611.59;;;11.93;75.26
49461;BME280;35355;49.198;-0.368;2023-11-18T00:31:05;101594.84;;;11.90;75.21
49461;BME280;35355;49.198;-0.368;2023-11-18T00:33:31;101601.38;;;11.89;75.62
49461;BME280;35355;49.198;-0.368;2023-11-18T00:35:57;101602.47;;;11.88;75.47
49461;BME280;35355;49.198;-0.368;2023-11-18T00:38:26;101591.75;;;11.86;75.71
49461;BME280;35355;49.198;-0.368;2023-11-18T00:40:51;101600.78;;;11.87;75.72
49461;BME280;35355;49.198;-0.368;2023-11-18T00:43:17;101596.41;;;11.86;75.59
49461;BME280;35355;49.198;-0.368;2023-11-18T00:45:43;101586.53;;;11.85;75.79
49461;BME280;35355;49.198;-0.368;2023-11-18T00:48:09;101590.34;;;11.84;75.75
49461;BME280;35355;49.198;-0.368;2023-11-18T00:50:34;101595.81;;;11.84;76.18
49461;BME280;35355;49.198;-0.368;2023-11-18T00:53:00;101584.88;;;11.84;76.13
49461;BME280;35355;49.198;-0.368;2023-11-18T00:55:25;101593.69;;;11.86;76.30
49461;BME280;35355;49.198;-0.368;2023-11-18T00:57:50;101591.50;;;11.88;76.34
49461;BME280;35355;49.198;-0.368;2023-11-18T01:00:16;101578.66;;;11.88;76.49
49461;BME280;35355;49.198;-0.368;2023-11-18T01:02:42;101575.09;;;11.88;76.51
49461;BME280;35355;49.198;-0.368;2023-11-18T01:05:09;101570.22;;;11.90;76.08
49461;BME280;35355;49.198;-0.368;2023-11-18T01:07:36;101562.25;;;11.88;76.39
49461;BME280;35355;49.198;-0.368;2023-11-18T01:10:01;101551.56;;;11.87;76.34
49461;BME280;35355;49.198;-0.368;2023-11-18T01:12:27;101549.66;;;11.87;76.36
49461;BME280;35355;49.198;-0.368;2023-11-18T01:14:52;101552.66;;;11.86;76.31
49461;BME280;35355;49.198;-0.368;2023-11-18T01:17:17;101542.53;;;11.86;76.78
49461;BME280;35355;49.198;-0.368;2023-11-18T01:19:43;101546.06;;;11.87;76.39
49461;BME280;35355;49.198;-0.368;2023-11-18T01:22:09;101540.59;;;11.87;76.21
49461;BME280;35355;49.198;-0.368;2023-11-18T01:24:36;101541.19;;;11.89;76.23
49461;BME280;35355;49.198;-0.368;2023-11-18T01:27:02;101540.59;;;11.87;76.45
49461;BME280;35355;49.198;-0.368;2023-11-18T01:29:27;101523.38;;;11.86;76.29
49461;BME280;35355;49.198;-0.368;2023-11-18T01:31:53;101503.66;;;11.84;76.23
49461;BME280;35355;49.198;-0.368;2023-11-18T01:34:20;101493.53;;;11.85;76.72
49461;BME280;35355;49.198;-0.368;2023-11-18T01:36:47;101488.06;;;11.85;76.72
49461;BME280;35355;49.198;-0.368;2023-11-18T01:39:15;101483.66;;;11.84;76.50
49461;BME280;35355;49.198;-0.368;2023-11-18T01:41:40;101486.41;;;11.84;76.48
49461;BME280;35355;49.198;-0.368;2023-11-18T01:44:06;101478.19;;;11.84;76.50
49461;BME280;35355;49.198;-0.368;2023-11-18T01:46:33;101473.81;;;11.83;76.41
49461;BME280;35355;49.198;-0.368;2023-11-18T01:48:58;101483.09;;;11.82;76.64
49461;BME280;35355;49.198;-0.368;2023-11-18T01:51:23;101480.88;;;11.79;76.37
49461;BME280;35355;49.198;-0.368;2023-11-18T01:53:49;101480.28;;;11.76;76.62
49461;BME280;35355;49.198;-0.368;2023-11-18T01:56:15;101461.97;;;11.77;76.56
49461;BME280;35355;49.198;-0.368;2023-11-18T01:58:41;101465.53;;;11.77;76.88
49461;BME280;35355;49.198;-0.368;2023-11-18T02:01:07;101467.72;;;11.75;76.57
49461;BME280;35355;49.198;-0.368;2023-11-18T02:03:34;101463.06;;;11.76;76.83
49461;BME280;35355;49.198;-0.368;2023-11-18T02:06:00;101452.94;;;11.76;76.66
49461;BME280;35355;49.198;-0.368;2023-11-18T02:08:27;101449.97;;;11.78;76.53
49461;BME280;35355;49.198;-0.368;2023-11-18T02:13:22;101435.69;;;11.76;76.43
49461;BME280;35355;49.198;-0.368;2023-11-18T02:15:55;101438.19;;;11.77;76.39
49461;BME280;35355;49.198;-0.368;2023-11-18T02:18:28;101431.91;;;11.77;76.52
49461;BME280;35355;49.198;-0.368;2023-11-18T02:20:58;101425.59;;;11.76;76.78
49461;BME280;35355;49.198;-0.368;2023-11-18T02:23:25;101418.22;;;11.77;76.89
49461;BME280;35355;49.198;-0.368;2023-11-18T02:25:51;101417.97;;;11.79;76.61
49461;BME280;35355;49.198;-0.368;2023-11-18T02:28:17;101405.97;;;11.80;76.83
49461;BME280;35355;49.198;-0.368;2023-11-18T02:30:43;101393.09;;;11.80;76.72
49461;BME280;35355;49.198;-0.368;2023-11-18T02:36:58;101392.53;;;11.78;76.53
49461;BME280;35355;49.198;-0.368;2023-11-18T02:39:27;101388.94;;;11.77;76.73
49461;BME280;35355;49.198;-0.368;2023-11-18T02:41:55;101381.59;;;11.78;76.81
49461;BME280;35355;49.198;-0.368;2023-11-18T02:44:24;101378.88;;;11.78;76.84
49461;BME280;35355;49.198;-0.368;2023-11-18T02:46:50;101368.75;;;11.79;76.55
49461;BME280;35355;49.198;-0.368;2023-11-18T02:49:15;101374.22;;;11.79;76.87
49461;BME280;35355;49.198;-0.368;2023-11-18T02:51:41;101373.13;;;11.80;76.61
49461;BME280;35355;49.198;-0.368;2023-11-18T02:54:07;101369.56;;;11.79;76.60
49461;BME280;35355;49.198;-0.368;2023-11-18T02:56:38;101361.59;;;11.77;76.60
49461;BME280;35355;49.198;-0.368;2023-11-18T02:59:04;101355.63;;;11.81;76.92
49461;BME280;35355;49.198;-0.368;2023-11-18T03:01:33;101342.47;;;11.77;76.70
49461;BME280;35355;49.198;-0.368;2023-11-18T03:04:04;101346.34;;;11.82;76.59
49461;BME280;35355;49.198;-0.368;2023-11-18T03:06:30;101334.59;;;11.81;76.49
49461;BME280;35355;49.198;-0.368;2023-11-18T03:08:59;101314.59;;;11.81;76.84
49461;BME280;35355;49.198;-0.368;2023-11-18T03:11:25;101312.97;;;11.80;76.65
49461;BME280;35355;49.198;-0.368;2023-11-18T03:13:50;101304.75;;;11.80;76.94
49461;BME280;35355;49.198;-0.368;2023-11-18T03:16:16;101301.75;;;11.81;76.92
49461;BME280;35355;49.198;-0.368;2023-11-18T03:18:42;101303.41;;;11.82;77.19
49461;BME280;35355;49.198;-0.368;2023-11-18T03:21:14;101304.25;;;11.83;76.67
49461;BME280;35355;49.198;-0.368;2023-11-18T03:23:40;101307.53;;;11.85;77.23
49461;BME280;35355;49.198;-0.368;2023-11-18T03:26:09;101304.53;;;11.86;77.02
49461;BME280;35355;49.198;-0.368;2023-11-18T03:28:36;101290.88;;;11.86;77.03
49461;BME280;35355;49.198;-0.368;2023-11-18T03:31:03;101292.53;;;11.87;76.77
49461;BME280;35355;49.198;-0.368;2023-11-18T03:33:29;101275.84;;;11.89;76.76
49461;BME280;35355;49.198;-0.368;2023-11-18T03:35:54;101267.06;;;11.87;76.89
49461;BME280;35355;49.198;-0.368;2023-11-18T03:38:21;101267.91;;;11.87;77.11
49461;BME280;35355;49.198;-0.368;2023-11-18T03:40:46;101260.53;;;11.88;76.78
49461;BME280;35355;49.198;-0.368;2023-11-18T03:43:12;101246.81;;;11.83;77.27
49461;BME280;35355;49.198;-0.368;2023-11-18T03:45:41;101254.78;;;11.89;76.64
49461;BME280;35355;49.198;-0.368;2023-11-18T03:48:07;101256.44;;;11.90;76.75
49461;BME280;35355;49.198;-0.368;2023-11-18T03:50:36;101251.78;;;11.91;77.18
49461;BME280;35355;49.198;-0.368;2023-11-18T03:53:01;101245.25;;;11.92;77.16
49461;BME280;35355;49.198;-0.368;2023-11-18T03:55:28;101249.69;;;11.93;77.03
49461;BME280;35355;49.198;-0.368;2023-11-18T03:57:54;101240.38;;;11.94;77.08
49461;BME280;35355;49.198;-0.368;2023-11-18T04:00:21;101238.47;;;11.95;76.73
49461;BME280;35355;49.198;-0.368;2023-11-18T04:02:46;101236.56;;;11.95;77.09
49461;BME280;35355;49.198;-0.368;2023-11-18T04:05:12;101234.63;;;11.96;77.26
49461;BME280;35355;49.198;-0.368;2023-11-18T04:07:38;101226.69;;;11.94;76.98
49461;BME280;35355;49.198;-0.368;2023-11-18T04:10:03;101213.50;;;11.91;76.95
49461;BME280;35355;49.198;-0.368;2023-11-18T04:12:34;101225.09;;;11.98;76.94
49461;BME280;35355;49.198;-0.368;2023-11-18T04:15:00;101227.81;;;11.98;76.79
49461;BME280;35355;49.198;-0.368;2023-11-18T04:17:25;101221.03;;;12.01;77.44
49461;BME280;35355;49.198;-0.368;2023-11-18T04:19:53;101226.50;;;12.01;77.38
49461;BME280;35355;49.198;-0.368;2023-11-18T04:22:21;101226.50;;;12.01;77.39
49461;BME280;35355;49.198;-0.368;2023-11-18T04:24:47;101234.69;;;12.01;77.31
49461;BME280;35355;49.198;-0.368;2023-11-18T04:27:12;101223.50;;;12.02;77.22
49461;BME280;35355;49.198;-0.368;2023-11-18T04:29:38;101236.91;;;12.04;77.41
49461;BME280;35355;49.198;-0.368;2023-11-18T04:32:03;101237.72;;;12.04;76.87
49461;BME280;35355;49.198;-0.368;2023-11-18T04:34:31;101227.38;;;12.06;77.04
49461;BME280;35355;49.198;-0.368;2023-11-18T04:36:58;101227.38;;;12.06;77.11
49461;BME280;35355;49.198;-0.368;2023-11-18T04:39:26;101232.31;;;12.09;77.21
49461;BME280;35355;49.198;-0.368;2023-11-18T04:41:55;101233.94;;;12.10;77.03
49461;BME280;35355;49.198;-0.368;2023-11-18T04:44:21;101223.00;;;12.10;77.25
49461;BME280;35355;49.198;-0.368;2023-11-18T04:46:47;101228.25;;;12.12;77.31
49461;BME280;35355;49.198;-0.368;2023-11-18T04:49:15;101222.19;;;12.10;77.30
49461;BME280;35355;49.198;-0.368;2023-11-18T04:51:40;101223.59;;;12.13;77.19
49461;BME280;35355;49.198;-0.368;2023-11-18T04:54:09;101209.09;;;12.12;76.94
49461;BME280;35355;49.198;-0.368;2023-11-18T04:56:36;101201.69;;;12.13;77.16
49461;BME280;35355;49.198;-0.368;2023-11-18T04:59:02;101198.16;;;12.12;77.14
49461;BME280;35355;49.198;-0.368;2023-11-18T05:01:29;101200.03;;;12.11;77.19
49461;BME280;35355;49.198;-0.368;2023-11-18T05:03:55;101194.31;;;12.13;77.35
49461;BME280;35355;49.198;-0.368;2023-11-18T05:06:20;101181.72;;;12.12;77.57
49461;BME280;35355;49.198;-0.368;2023-11-18T05:08:45;101179.53;;;12.14;77.48
49461;BME280;35355;49.198;-0.368;2023-11-18T05:11:11;101185.00;;;12.14;77.50
49461;BME280;35355;49.198;-0.368;2023-11-18T05:13:38;101177.63;;;12.15;77.56
49461;BME280;35355;49.198;-0.368;2023-11-18T05:16:05;101178.72;;;12.14;77.37
49461;BME280;35355;49.198;-0.368;2023-11-18T05:18:31;101180.34;;;12.15;77.65
49461;BME280;35355;49.198;-0.368;2023-11-18T05:21:00;101186.41;;;12.17;77.75
49461;BME280;35355;49.198;-0.368;2023-11-18T05:23:26;101182.56;;;12.18;77.67
49461;BME280;35355;49.198;-0.368;2023-11-18T05:25:54;101174.34;;;12.18;77.40
49461;BME280;35355;49.198;-0.368;2023-11-18T05:28:21;101164.00;;;12.20;77.58
49461;BME280;35355;49.198;-0.368;2023-11-18T05:30:47;101162.06;;;12.20;77.46
49461;BME280;35355;49.198;-0.368;2023-11-18T05:33:12;101143.16;;;12.19;77.57
49461;BME280;35355;49.198;-0.368;2023-11-18T05:35:46;101149.47;;;12.19;77.32
49461;BME280;35355;49.198;-0.368;2023-11-18T05:38:18;101147.00;;;12.18;77.63
49461;BME280;35355;49.198;-0.368;2023-11-18T05:40:47;101144.00;;;12.19;77.68
49461;BME280;35355;49.198;-0.368;2023-11-18T05:43:32;101143.16;;;12.19;77.79
49461;BME280;35355;49.198;-0.368;2023-11-18T05:46:06;101149.72;;;12.18;77.89
49461;BME280;35355;49.198;-0.368;2023-11-18T05:49:02;101148.66;;;12.19;77.90
49461;BME280;35355;49.198;-0.368;2023-11-18T05:51:27;101135.78;;;12.19;78.18
49461;BME280;35355;49.198;-0.368;2023-11-18T05:53:54;101138.50;;;12.19;77.98
49461;BME280;35355;49.198;-0.368;2023-11-18T05:56:21;101133.88;;;12.20;78.01
49461;BME280;35355;49.198;-0.368;2023-11-18T05:58:51;101133.34;;;12.23;78.07
49461;BME280;35355;49.198;-0.368;2023-11-18T06:01:18;101132.28;;;12.24;77.99
49461;BME280;35355;49.198;-0.368;2023-11-18T06:03:44;101133.91;;;12.25;77.94
49461;BME280;35355;49.198;-0.368;2023-11-18T06:06:12;101128.16;;;12.26;78.29
49461;BME280;35355;49.198;-0.368;2023-11-18T06:08:39;101122.44;;;12.28;78.23
49461;BME280;35355;49.198;-0.368;2023-11-18T06:11:09;101116.69;;;12.29;78.38
49461;BME280;35355;49.198;-0.368;2023-11-18T06:13:51;101117.53;;;12.30;78.20
49461;BME280;35355;49.198;-0.368;2023-11-18T06:16:18;101111.53;;;12.33;78.53
49461;BME280;35355;49.198;-0.368;2023-11-18T06:18:49;101094.84;;;12.35;78.34
49461;BME280;35355;49.198;-0.368;2023-11-18T06:21:16;101092.66;;;12.37;78.10
49461;BME280;35355;49.198;-0.368;2023-11-18T06:23:43;101107.19;;;12.37;78.39
49461;BME280;35355;49.198;-0.368;2023-11-18T06:26:11;101096.22;;;12.37;78.19
49461;BME280;35355;49.198;-0.368;2023-11-18T06:28:38;101109.91;;;12.37;78.41
49461;BME280;35355;49.198;-0.368;2023-11-18T06:31:04;101106.06;;;12.38;78.47
49461;BME280;35355;49.198;-0.368;2023-11-18T06:33:36;101106.91;;;12.39;78.59
49461;BME280;35355;49.198;-0.368;2023-11-18T06:36:01;101101.16;;;12.40;78.75
49461;BME280;35355;49.198;-0.368;2023-11-18T06:38:27;101094.03;;;12.39;78.51
49461;BME280;35355;49.198;-0.368;2023-11-18T06:40:52;101094.03;;;12.39;78.80
49461;BME280;35355;49.198;-0.368;2023-11-18T06:43:19;101084.75;;;12.40;78.82
49461;BME280;35355;49.198;-0.368;2023-11-18T06:45:45;101087.22;;;12.42;78.95
49461;BME280;35355;49.198;-0.368;2023-11-18T06:48:12;101092.44;;;12.43;78.85
49461;BME280;35355;49.198;-0.368;2023-11-18T06:50:39;101082.56;;;12.42;78.85
49461;BME280;35355;49.198;-0.368;2023-11-18T06:53:09;101087.50;;;12.45;78.79
49461;BME280;35355;49.198;-0.368;2023-11-18T06:55:36;101081.22;;;12.45;79.02
49461;BME280;35355;49.198;-0.368;2023-11-18T06:58:02;101073.81;;;12.45;78.87
49461;BME280;35355;49.198;-0.368;2023-11-18T07:00:27;101069.19;;;12.46;78.83
49461;BME280;35355;49.198;-0.368;2023-11-18T07:02:55;101073.53;;;12.47;78.75
49461;BME280;35355;49.198;-0.368;2023-11-18T07:05:20;101082.59;;;12.48;78.93
49461;BME280;35355;49.198;-0.368;2023-11-18T07:07:49;101071.38;;;12.49;79.38
49461;BME280;35355;49.198;-0.368;2023-11-18T07:10:15;101069.44;;;12.50;78.99
49461;BME280;35355;49.198;-0.368;2023-11-18T07:12:43;101064.53;;;12.52;79.12
49461;BME280;35355;49.198;-0.368;2023-11-18T07:15:09;101060.44;;;12.49;78.93
49461;BME280;35355;49.198;-0.368;2023-11-18T07:17:35;101075.47;;;12.52;79.06
49461;BME280;35355;49.198;-0.368;2023-11-18T07:20:01;101075.47;;;12.52;78.91
49461;BME280;35355;49.198;-0.368;2023-11-18T07:22:26;101082.59;;;12.53;78.97
49461;BME280;35355;49.198;-0.368;2023-11-18T07:24:51;101082.59;;;12.53;79.12
49461;BME280;35355;49.198;-0.368;2023-11-18T07:27:17;101079.59;;;12.54;79.10
49461;BME280;35355;49.198;-0.368;2023-11-18T07:29:43;101089.22;;;12.57;79.20
49461;BME280;35355;49.198;-0.368;2023-11-18T07:32:10;101087.84;;;12.59;79.42
49461;BME280;35355;49.198;-0.368;2023-11-18T07:34:35;101092.22;;;12.60;79.51
49461;BME280;35355;49.198;-0.368;2023-11-18T07:37:01;101087.00;;;12.59;79.30
49461;BME280;35355;49.198;-0.368;2023-11-18T07:39:27;101103.47;;;12.64;79.39
49461;BME280;35355;49.198;-0.368;2023-11-18T07:42:10;101104.03;;;12.66;79.65
49461;BME280;35355;49.198;-0.368;2023-11-18T07:44:35;101099.09;;;12.63;79.36
49461;BME280;35355;49.198;-0.368;2023-11-18T07:47:00;101102.69;;;12.69;79.42
49461;BME280;35355;49.198;-0.368;2023-11-18T07:49:26;101098.84;;;12.70;79.57
49461;BME280;35355;49.198;-0.368;2023-11-18T07:51:51;101101.34;;;12.71;79.60
49461;BME280;35355;49.198;-0.368;2023-11-18T07:54:16;101121.59;;;12.75;79.48
49461;BME280;35355;49.198;-0.368;2023-11-18T07:56:43;101118.03;;;12.75;79.55
49461;BME280;35355;49.198;-0.368;2023-11-18T07:59:11;101119.44;;;12.77;79.44
49461;BME280;35355;49.198;-0.368;2023-11-18T08:01:41;101121.09;;;12.78;79.71
49461;BME280;35355;49.198;-0.368;2023-11-18T08:04:10;101130.41;;;12.82;79.66
49461;BME280;35355;49.198;-0.368;2023-11-18T08:06:35;101128.22;;;12.85;79.68
49461;BME280;35355;49.198;-0.368;2023-11-18T08:09:01;101120.56;;;12.87;79.75
49461;BME280;35355;49.198;-0.368;2023-11-18T08:11:27;101103.03;;;12.88;79.60
49461;BME280;35355;49.198;-0.368;2023-11-18T08:13:54;101096.19;;;12.90;79.75
49461;BME280;35355;49.198;-0.368;2023-11-18T08:16:20;101082.22;;;12.92;79.83
49461;BME280;35355;49.198;-0.368;2023-11-18T08:18:47;101086.59;;;12.93;79.81
49461;BME280;35355;49.198;-0.368;2023-11-18T08:21:12;101084.16;;;12.96;79.86
49461;BME280;35355;49.198;-0.368;2023-11-18T08:23:39;101086.63;;;12.98;79.95
49461;BME280;35355;49.198;-0.368;2023-11-18T08:26:04;101094.31;;;13.01;80.22
49461;BME280;35355;49.198;-0.368;2023-11-18T08:28:30;101078.97;;;13.05;80.17
49461;BME280;35355;49.198;-0.368;2023-11-18T08:30:56;101088.84;;;13.11;80.12
49461;BME280;35355;49.198;-0.368;2023-11-18T08:33:22;101094.34;;;13.16;80.49
49461;BME280;35355;49.198;-0.368;2023-11-18T08:35:50;101091.06;;;13.20;80.18
49461;BME280;35355;49.198;-0.368;2023-11-18T08:38:15;101094.09;;;13.23;80.65
49461;BME280;35355;49.198;-0.368;2023-11-18T08:40:41;101084.78;;;13.29;80.78
49461;BME280;35355;49.198;-0.368;2023-11-18T08:43:08;101092.22;;;13.34;80.84
49461;BME280;35355;49.198;-0.368;2023-11-18T08:45:33;101067.56;;;13.39;80.81
49461;BME280;35355;49.198;-0.368;2023-11-18T08:48:00;101066.47;;;13.45;80.89
49461;BME280;35355;49.198;-0.368;2023-11-18T08:50:34;101061.25;;;13.49;80.91
49461;BME280;35355;49.198;-0.368;2023-11-18T08:52:59;101040.97;;;13.50;80.85
49461;BME280;35355;49.198;-0.368;2023-11-18T08:55:27;101043.69;;;13.55;80.75
49461;BME280;35355;49.198;-0.368;2023-11-18T08:58:11;101035.19;;;13.57;80.67
49461;BME280;35355;49.198;-0.368;2023-11-18T09:00:55;101026.97;;;13.62;80.71
49461;BME280;35355;49.198;-0.368;2023-11-18T09:03:21;101022.88;;;13.64;80.56
49461;BME280;35355;49.198;-0.368;2023-11-18T09:05:51;101014.91;;;13.68;80.79
49461;BME280;35355;49.198;-0.368;2023-11-18T09:10:52;101013.50;;;13.76;80.90
49461;BME280;35355;49.198;-0.368;2023-11-18T09:13:21;101007.75;;;13.77;80.78
49461;BME280;35355;49.198;-0.368;2023-11-18T09:15:49;101013.50;;;13.81;80.87
49461;BME280;35355;49.198;-0.368;2023-11-18T09:18:14;101027.50;;;13.84;81.08
49461;BME280;35355;49.198;-0.368;2023-11-18T09:20:43;101025.31;;;13.86;81.02
49461;BME280;35355;49.198;-0.368;2023-11-18T09:23:08;101017.31;;;13.90;80.98
49461;BME280;35355;49.198;-0.368;2023-11-18T09:25:34;101011.56;;;13.92;80.89
49461;BME280;35355;49.198;-0.368;2023-11-18T09:27:59;101021.44;;;13.98;80.62
49461;BME280;35355;49.198;-0.368;2023-11-18T09:30:25;101016.50;;;14.00;81.02
49461;BME280;35355;49.198;-0.368;2023-11-18T09:32:50;101019.22;;;14.05;81.06
49461;BME280;35355;49.198;-0.368;2023-11-18T09:35:17;101025.28;;;14.07;81.18
49461;BME280;35355;49.198;-0.368;2023-11-18T09:37:45;101019.22;;;14.05;80.92
49461;BME280;35355;49.198;-0.368;2023-11-18T09:40:13;101022.22;;;14.14;81.04
49461;BME280;35355;49.198;-0.368;2023-11-18T09:42:40;101027.16;;;14.17;80.97
49461;BME280;35355;49.198;-0.368;2023-11-18T09:45:08;101029.88;;;14.17;80.96
49461;BME280;35355;49.198;-0.368;2023-11-18T09:47:42;101035.94;;;14.19;80.93
49461;BME280;35355;49.198;-0.368;2023-11-18T09:50:10;101034.53;;;14.21;81.30
49461;BME280;35355;49.198;-0.368;2023-11-18T09:52:42;101021.38;;;14.24;80.98
49461;BME280;35355;49.198;-0.368;2023-11-18T09:55:24;101022.47;;;14.28;80.98
49461;BME280;35355;49.198;-0.368;2023-11-18T09:57:55;101029.03;;;14.32;81.10
49461;BME280;35355;49.198;-0.368;2023-11-18T10:00:26;101033.94;;;14.35;81.15
49461;BME280;35355;49.198;-0.368;2023-11-18T10:02:53;101024.63;;;14.36;81.12
49461;BME280;35355;49.198;-0.368;2023-11-18T10:05:22;101011.97;;;14.40;81.04
49461;BME280;35355;49.198;-0.368;2023-11-18T10:07:48;101007.00;;;14.42;81.04
49461;BME280;35355;49.198;-0.368;2023-11-18T10:10:14;101000.75;;;14.36;81.30
49461;BME280;35355;49.198;-0.368;2023-11-18T10:12:42;101003.75;;;14.40;81.00
49461;BME280;35355;49.198;-0.368;2023-11-18T10:15:13;100996.88;;;14.37;80.93
49461;BME280;35355;49.198;-0.368;2023-11-18T10:17:42;100997.16;;;14.36;81.08
49461;BME280;35355;49.198;-0.368;2023-11-18T10:23:09;100983.47;;;14.31;80.79
49461;BME280;35355;49.198;-0.368;2023-11-18T10:25:36;100987.31;;;14.30;81.02
49461;BME280;35355;49.198;-0.368;2023-11-18T10:28:06;100966.72;;;14.27;80.94
49461;BME280;35355;49.198;-0.368;2023-11-18T10:30:32;100971.38;;;14.27;81.05
49461;BME280;35355;49.198;-0.368;2023-11-18T10:33:07;100996.09;;;14.27;81.15
49461;BME280;35355;49.198;-0.368;2023-11-18T10:35:34;100995.28;;;14.26;81.04
49461;BME280;35355;49.198;-0.368;2023-11-18T10:38:02;101004.34;;;14.27;81.16
49461;BME280;35355;49.198;-0.368;2023-11-18T10:40:33;101004.34;;;14.27;81.19
49461;BME280;35355;49.198;-0.368;2023-11-18T10:43:05;101008.75;;;14.28;81.39
49461;BME280;35355;49.198;-0.368;2023-11-18T10:45:35;101019.44;;;14.29;81.51
49461;BME280;35355;49.198;-0.368;2023-11-18T10:48:05;100993.06;;;14.28;81.53
49461;BME280;35355;49.198;-0.368;2023-11-18T10:50:31;100991.13;;;14.29;81.54
49461;BME280;35355;49.198;-0.368;2023-11-18T10:53:00;100984.56;;;14.30;81.58
49461;BME280;35355;49.198;-0.368;2023-11-18T10:55:40;100999.94;;;14.31;81.14
49461;BME280;35355;49.198;-0.368;2023-11-18T10:58:06;100986.75;;;14.33;81.58
49461;BME280;35355;49.198;-0.368;2023-11-18T11:00:50;100994.69;;;14.34;81.29
49461;BME280;35355;49.198;-0.368;2023-11-18T11:03:18;100993.31;;;14.37;81.60
49461;BME280;35355;49.198;-0.368;2023-11-18T11:05:44;100991.38;;;14.37;81.63
49461;BME280;35355;49.198;-0.368;2023-11-18T11:08:14;100998.78;;;14.42;81.64
49461;BME280;35355;49.198;-0.368;2023-11-18T11:10:41;100989.44;;;14.43;81.85
49461;BME280;35355;49.198;-0.368;2023-11-18T11:13:10;100980.63;;;14.46;81.73
49461;BME280;35355;49.198;-0.368;2023-11-18T11:15:43;100979.25;;;14.49;81.60
49461;BME280;35355;49.198;-0.368;2023-11-18T11:18:19;100983.38;;;14.51;81.70
49461;BME280;35355;49.198;-0.368;2023-11-18T11:20:58;100979.50;;;14.52;81.64
49461;BME280;35355;49.198;-0.368;2023-11-18T11:23:50;100972.38;;;14.51;81.56
49461;BME280;35355;49.198;-0.368;2023-11-18T11:26:40;100975.66;;;14.53;81.61
49461;BME280;35355;49.198;-0.368;2023-11-18T11:29:25;100960.28;;;14.52;81.73
49461;BME280;35355;49.198;-0.368;2023-11-18T11:34:24;100985.00;;;14.52;81.96
49461;BME280;35355;49.198;-0.368;2023-11-18T11:36:53;100985.00;;;14.52;82.01
49461;BME280;35355;49.198;-0.368;2023-11-18T11:39:19;100967.69;;;14.52;82.10
49461;BME280;35355;49.198;-0.368;2023-11-18T11:41:54;100963.03;;;14.52;82.22
49461;BME280;35355;49.198;-0.368;2023-11-18T11:44:24;100953.69;;;14.53;82.24
49461;BME280;35355;49.198;-0.368;2023-11-18T11:46:59;100951.47;;;14.55;82.15
49461;BME280;35355;49.198;-0.368;2023-11-18T11:49:27;100942.41;;;14.55;82.33
49461;BME280;35355;49.198;-0.368;2023-11-18T11:54:34;100941.03;;;14.57;82.29
49461;BME280;35355;49.198;-0.368;2023-11-18T11:57:03;100925.94;;;14.55;82.45
49461;BME280;35355;49.198;-0.368;2023-11-18T12:02:27;100924.00;;;14.55;82.39
49461;BME280;35355;49.198;-0.368;2023-11-18T12:04:58;100919.63;;;14.54;82.52
49461;BME280;35355;49.198;-0.368;2023-11-18T12:07:27;100912.47;;;14.53;82.49
49461;BME280;35355;49.198;-0.368;2023-11-18T12:09:59;100905.34;;;14.52;82.40
49461;BME280;35355;49.198;-0.368;2023-11-18T12:12:26;100900.69;;;14.53;82.80
49461;BME280;35355;49.198;-0.368;2023-11-18T12:18:09;100909.16;;;14.56;82.54
49461;BME280;35355;49.198;-0.368;2023-11-18T12:20:41;100900.34;;;14.60;82.68
49461;BME280;35355;49.198;-0.368;2023-11-18T12:23:07;100910.25;;;14.61;82.95
49461;BME280;35355;49.198;-0.368;2023-11-18T12:25:46;100898.72;;;14.64;82.91
49461;BME280;35355;49.198;-0.368;2023-11-18T12:28:15;100907.47;;;14.66;83.04
49461;BME280;35355;49.198;-0.368;2023-11-18T12:30:42;100901.41;;;14.69;83.14
49461;BME280;35355;49.198;-0.368;2023-11-18T12:33:17;100910.22;;;14.71;83.09
49461;BME280;35355;49.198;-0.368;2023-11-18T12:41:37;100908.53;;;14.75;82.88
49461;BME280;35355;49.198;-0.368;2023-11-18T12:44:16;100907.41;;;14.76;83.17
49461;BME280;35355;49.198;-0.368;2023-11-18T12:47:01;100898.06;;;14.77;82.88
49461;BME280;35355;49.198;-0.368;2023-11-18T12:49:42;100907.97;;;14.78;83.26
49461;BME280;35355;49.198;-0.368;2023-11-18T12:52:10;100914.28;;;14.79;83.13
49461;BME280;35355;49.198;-0.368;2023-11-18T12:54:36;100915.63;;;14.81;83.17
49461;BME280;35355;49.198;-0.368;2023-11-18T12:57:09;100921.13;;;14.81;83.37
49461;BME280;35355;49.198;-0.368;2023-11-18T12:59:36;100925.25;;;14.84;83.01
49461;BME280;35355;49.198;-0.368;2023-11-18T13:02:07;100920.03;;;14.82;83.27
49461;BME280;35355;49.198;-0.368;2023-11-18T13:04:32;100923.31;;;14.84;83.23
49461;BME280;35355;49.198;-0.368;2023-11-18T13:06:59;100919.47;;;14.85;83.49
49461;BME280;35355;49.198;-0.368;2023-11-18T13:09:26;100907.34;;;14.86;83.53
49461;BME280;35355;49.198;-0.368;2023-11-18T13:11:56;100904.00;;;14.89;83.45
49461;BME280;35355;49.198;-0.368;2023-11-18T13:14:32;100890.28;;;14.89;83.45